sensor_id;sensor_type;location;lat;lon;timestamp;P1;durP1;ratioP1;P2;durP2;ratioP2
2201;SDS011;1107;48.654;9.250;2023-02-15T08:23:41;25.37;;;18.27;;
2201;SDS011;1107;48.654;9.250;2023-02-15T08:26:08;27.57;;;19.00;;
2201;SDS011;1107;48.654;9.250;2023-02-15T09:12:46;26.10;;;18.80;;
2201;SDS011;1107;48.654;9.250;2023-02-15T09:17:43;22.30;;;18.60;;
2201;SDS011;1107;48.654;9.250;2023-02-15T09:20:10;23.30;;;19.20;;
2201;SDS011;1107;48.654;9.250;2023-02-15T09:22:37;22.90;;;19.60;;
2201;SDS011;1107;48.654;9.250;2023-02-15T09:25:04;21.70;;;18.77;;
2201;SDS011;1107;48.654;9.250;2023-02-15T09:27:31;22.63;;;18.73;;
2201;SDS011;1107;48.654;9.250;2023-02-15T09:29:58;26.27;;;20.27;;
2201;SDS011;1107;48.654;9.250;2023-02-15T09:32:27;23.00;;;20.17;;
2201;SDS011;1107;48.654;9.250;2023-02-15T09:34:54;20.97;;;18.47;;
2201;SDS011;1107;48.654;9.250;2023-02-15T09:37:21;21.00;;;18.37;;
2201;SDS011;1107;48.654;9.250;2023-02-15T09:39:47;22.60;;;18.50;;
2201;SDS011;1107;48.654;9.250;2023-02-15T09:42:25;23.70;;;18.80;;
2201;SDS011;1107;48.654;9.250;2023-02-15T09:45:13;24.00;;;20.90;;
2201;SDS011;1107;48.654;9.250;2023-02-15T09:51:00;26.67;;;19.90;;
2201;SDS011;1107;48.654;9.250;2023-02-15T09:53:43;22.77;;;20.00;;
2201;SDS011;1107;48.654;9.250;2023-02-15T09:56:24;22.53;;;19.40;;
2201;SDS011;1107;48.654;9.250;2023-02-15T09:59:03;20.93;;;18.67;;
2201;SDS011;1107;48.654;9.250;2023-02-15T10:01:38;25.60;;;19.80;;
2201;SDS011;1107;48.654;9.250;2023-02-15T10:07:20;23.53;;;16.67;;
2201;SDS011;1107;48.654;9.250;2023-02-15T10:10:07;20.17;;;17.07;;
2201;SDS011;1107;48.654;9.250;2023-02-15T10:12:52;19.60;;;17.50;;
2201;SDS011;1107;48.654;9.250;2023-02-15T10:15:36;23.17;;;16.73;;
2201;SDS011;1107;48.654;9.250;2023-02-15T10:21:11;20.90;;;15.93;;
2201;SDS011;1107;48.654;9.250;2023-02-15T10:23:54;22.77;;;16.30;;
2201;SDS011;1107;48.654;9.250;2023-02-15T10:26:34;18.37;;;15.87;;
2201;SDS011;1107;48.654;9.250;2023-02-15T10:29:08;18.40;;;16.50;;
2201;SDS011;1107;48.654;9.250;2023-02-15T10:31:42;19.03;;;17.17;;
2201;SDS011;1107;48.654;9.250;2023-02-15T10:34:17;20.40;;;17.10;;
2201;SDS011;1107;48.654;9.250;2023-02-15T10:36:56;43.33;;;26.97;;
2201;SDS011;1107;48.654;9.250;2023-02-15T10:39:43;28.60;;;19.47;;
2201;SDS011;1107;48.654;9.250;2023-02-15T10:42:20;17.33;;;15.83;;
2201;SDS011;1107;48.654;9.250;2023-02-15T10:45:01;16.53;;;14.93;;
2201;SDS011;1107;48.654;9.250;2023-02-15T10:47:47;14.37;;;13.20;;
2201;SDS011;1107;48.654;9.250;2023-02-15T10:50:27;16.27;;;14.73;;
2201;SDS011;1107;48.654;9.250;2023-02-15T10:53:08;14.57;;;13.10;;
2201;SDS011;1107;48.654;9.250;2023-02-15T10:55:47;14.67;;;13.50;;
2201;SDS011;1107;48.654;9.250;2023-02-15T10:58:24;16.53;;;15.17;;
2201;SDS011;1107;48.654;9.250;2023-02-15T11:01:07;16.90;;;14.80;;
2201;SDS011;1107;48.654;9.250;2023-02-15T11:03:47;15.60;;;14.13;;
2201;SDS011;1107;48.654;9.250;2023-02-15T11:06:28;15.10;;;13.80;;
2201;SDS011;1107;48.654;9.250;2023-02-15T11:08:59;15.47;;;14.17;;
2201;SDS011;1107;48.654;9.250;2023-02-15T11:11:29;15.10;;;13.87;;
2201;SDS011;1107;48.654;9.250;2023-02-15T11:14:01;15.57;;;14.20;;
2201;SDS011;1107;48.654;9.250;2023-02-15T11:16:36;14.63;;;13.40;;
2201;SDS011;1107;48.654;9.250;2023-02-15T11:19:06;17.60;;;13.80;;
2201;SDS011;1107;48.654;9.250;2023-02-15T11:21:39;16.23;;;14.20;;
2201;SDS011;1107;48.654;9.250;2023-02-15T11:24:12;13.80;;;12.70;;
2201;SDS011;1107;48.654;9.250;2023-02-15T11:26:43;14.77;;;13.57;;
2201;SDS011;1107;48.654;9.250;2023-02-15T11:29:13;14.47;;;13.27;;
2201;SDS011;1107;48.654;9.250;2023-02-15T11:31:49;14.63;;;13.53;;
2201;SDS011;1107;48.654;9.250;2023-02-15T11:34:20;13.50;;;12.50;;
2201;SDS011;1107;48.654;9.250;2023-02-15T11:36:52;14.60;;;13.30;;
2201;SDS011;1107;48.654;9.250;2023-02-15T11:39:23;14.23;;;13.03;;
2201;SDS011;1107;48.654;9.250;2023-02-15T11:41:55;15.63;;;14.33;;
2201;SDS011;1107;48.654;9.250;2023-02-15T11:44:26;15.20;;;13.80;;
2201;SDS011;1107;48.654;9.250;2023-02-15T11:46:57;15.40;;;13.80;;
2201;SDS011;1107;48.654;9.250;2023-02-15T11:49:27;13.77;;;12.77;;
2201;SDS011;1107;48.654;9.250;2023-02-15T11:51:57;15.60;;;14.30;;
2201;SDS011;1107;48.654;9.250;2023-02-15T11:54:28;15.20;;;13.80;;
2201;SDS011;1107;48.654;9.250;2023-02-15T11:56:59;14.90;;;13.70;;
2201;SDS011;1107;48.654;9.250;2023-02-15T11:59:36;14.40;;;13.30;;
2201;SDS011;1107;48.654;9.250;2023-02-15T12:02:10;15.07;;;13.73;;
2201;SDS011;1107;48.654;9.250;2023-02-15T12:04:44;14.53;;;13.13;;
2201;SDS011;1107;48.654;9.250;2023-02-15T12:07:17;14.77;;;13.57;;
2201;SDS011;1107;48.654;9.250;2023-02-15T12:09:52;15.87;;;14.37;;
2201;SDS011;1107;48.654;9.250;2023-02-15T12:12:24;15.03;;;13.73;;
2201;SDS011;1107;48.654;9.250;2023-02-15T12:14:54;17.00;;;15.20;;
2201;SDS011;1107;48.654;9.250;2023-02-15T12:17:23;15.20;;;13.93;;
2201;SDS011;1107;48.654;9.250;2023-02-15T12:19:52;14.23;;;13.10;;
2201;SDS011;1107;48.654;9.250;2023-02-15T12:22:23;14.83;;;13.40;;
2201;SDS011;1107;48.654;9.250;2023-02-15T12:24:55;17.27;;;15.57;;
2201;SDS011;1107;48.654;9.250;2023-02-15T12:27:25;20.93;;;18.13;;
2201;SDS011;1107;48.654;9.250;2023-02-15T12:29:56;23.60;;;17.47;;
2201;SDS011;1107;48.654;9.250;2023-02-15T12:32:26;17.80;;;16.10;;
2201;SDS011;1107;48.654;9.250;2023-02-15T12:34:55;19.90;;;16.47;;
2201;SDS011;1107;48.654;9.250;2023-02-15T12:37:27;18.10;;;16.30;;
2201;SDS011;1107;48.654;9.250;2023-02-15T12:39:58;17.43;;;15.93;;
2201;SDS011;1107;48.654;9.250;2023-02-15T12:42:27;17.13;;;15.60;;
2201;SDS011;1107;48.654;9.250;2023-02-15T12:45:20;16.23;;;14.83;;
2201;SDS011;1107;48.654;9.250;2023-02-15T12:50:41;16.33;;;14.77;;
2201;SDS011;1107;48.654;9.250;2023-02-15T12:53:13;17.20;;;15.77;;
2201;SDS011;1107;48.654;9.250;2023-02-15T12:55:50;19.50;;;16.60;;
2201;SDS011;1107;48.654;9.250;2023-02-15T12:58:19;20.13;;;17.80;;
2201;SDS011;1107;48.654;9.250;2023-02-15T13:00:57;18.40;;;16.80;;
2201;SDS011;1107;48.654;9.250;2023-02-15T13:03:47;18.57;;;16.63;;
2201;SDS011;1107;48.654;9.250;2023-02-15T13:06:22;19.90;;;17.10;;
2201;SDS011;1107;48.654;9.250;2023-02-15T13:08:50;18.50;;;16.63;;
2201;SDS011;1107;48.654;9.250;2023-02-15T13:11:22;16.93;;;15.33;;
2201;SDS011;1107;48.654;9.250;2023-02-15T13:13:53;18.80;;;16.67;;
2201;SDS011;1107;48.654;9.250;2023-02-15T13:16:24;17.37;;;15.80;;
2201;SDS011;1107;48.654;9.250;2023-02-15T13:18:56;16.77;;;15.07;;
2201;SDS011;1107;48.654;9.250;2023-02-15T13:21:26;17.30;;;15.67;;
2201;SDS011;1107;48.654;9.250;2023-02-15T13:23:57;18.40;;;15.37;;
2201;SDS011;1107;48.654;9.250;2023-02-15T13:26:32;18.00;;;16.33;;
2201;SDS011;1107;48.654;9.250;2023-02-15T13:29:04;17.33;;;15.70;;
2201;SDS011;1107;48.654;9.250;2023-02-15T13:31:34;17.10;;;15.40;;
2201;SDS011;1107;48.654;9.250;2023-02-15T13:34:03;16.13;;;14.70;;
2201;SDS011;1107;48.654;9.250;2023-02-15T13:36:38;14.50;;;13.43;;
2201;SDS011;1107;48.654;9.250;2023-02-15T13:39:14;15.23;;;13.70;;
2201;SDS011;1107;48.654;9.250;2023-02-15T13:41:52;15.57;;;14.03;;
2201;SDS011;1107;48.654;9.250;2023-02-15T13:44:29;15.70;;;14.30;;
2201;SDS011;1107;48.654;9.250;2023-02-15T13:47:15;14.80;;;13.33;;
2201;SDS011;1107;48.654;9.250;2023-02-15T13:49:50;14.97;;;13.73;;
2201;SDS011;1107;48.654;9.250;2023-02-15T13:52:27;15.33;;;13.93;;
2201;SDS011;1107;48.654;9.250;2023-02-15T13:55:00;15.50;;;13.90;;
2201;SDS011;1107;48.654;9.250;2023-02-15T13:57:46;19.53;;;14.20;;
2201;SDS011;1107;48.654;9.250;2023-02-15T14:00:28;16.03;;;13.60;;
2201;SDS011;1107;48.654;9.250;2023-02-15T14:03:13;17.63;;;13.33;;
2201;SDS011;1107;48.654;9.250;2023-02-15T14:06:14;16.17;;;13.60;;
2201;SDS011;1107;48.654;9.250;2023-02-15T14:09:01;14.73;;;13.43;;
2201;SDS011;1107;48.654;9.250;2023-02-15T14:11:40;14.40;;;13.10;;
2201;SDS011;1107;48.654;9.250;2023-02-15T14:14:27;15.33;;;13.87;;
2201;SDS011;1107;48.654;9.250;2023-02-15T14:17:14;14.73;;;13.17;;
2201;SDS011;1107;48.654;9.250;2023-02-15T14:19:50;13.80;;;12.70;;
2201;SDS011;1107;48.654;9.250;2023-02-15T14:22:22;14.87;;;13.13;;
2201;SDS011;1107;48.654;9.250;2023-02-15T14:24:58;14.83;;;13.37;;
2201;SDS011;1107;48.654;9.250;2023-02-15T14:27:39;14.73;;;13.50;;
2201;SDS011;1107;48.654;9.250;2023-02-15T14:30:15;14.33;;;12.93;;
2201;SDS011;1107;48.654;9.250;2023-02-15T14:32:46;13.90;;;12.80;;
2201;SDS011;1107;48.654;9.250;2023-02-15T14:35:16;13.47;;;12.30;;
2201;SDS011;1107;48.654;9.250;2023-02-15T14:37:46;18.10;;;13.60;;
2201;SDS011;1107;48.654;9.250;2023-02-15T14:40:19;14.13;;;13.13;;
2201;SDS011;1107;48.654;9.250;2023-02-15T14:43:19;15.47;;;14.07;;
2201;SDS011;1107;48.654;9.250;2023-02-15T14:45:55;20.00;;;13.70;;
2201;SDS011;1107;48.654;9.250;2023-02-15T14:48:28;16.83;;;14.40;;
2201;SDS011;1107;48.654;9.250;2023-02-15T14:50:58;15.67;;;14.07;;
2201;SDS011;1107;48.654;9.250;2023-02-15T14:53:33;16.70;;;13.63;;
2201;SDS011;1107;48.654;9.250;2023-02-15T14:56:05;15.93;;;14.30;;
2201;SDS011;1107;48.654;9.250;2023-02-15T14:58:54;17.13;;;14.93;;
2201;SDS011;1107;48.654;9.250;2023-02-15T15:01:50;21.33;;;16.90;;
2201;SDS011;1107;48.654;9.250;2023-02-15T15:04:23;22.33;;;15.70;;
2201;SDS011;1107;48.654;9.250;2023-02-15T15:06:59;16.00;;;14.50;;
2201;SDS011;1107;48.654;9.250;2023-02-15T15:09:34;15.87;;;14.57;;
2201;SDS011;1107;48.654;9.250;2023-02-15T15:15:11;16.70;;;15.13;;
2201;SDS011;1107;48.654;9.250;2023-02-15T15:17:57;20.80;;;16.63;;
2201;SDS011;1107;48.654;9.250;2023-02-15T15:23:36;22.73;;;17.57;;
2201;SDS011;1107;48.654;9.250;2023-02-15T15:29:12;20.00;;;17.87;;
2201;SDS011;1107;48.654;9.250;2023-02-15T15:31:43;21.90;;;18.13;;
2201;SDS011;1107;48.654;9.250;2023-02-15T15:40:36;28.63;;;17.60;;
2201;SDS011;1107;48.654;9.250;2023-02-15T15:46:41;20.87;;;17.93;;
2201;SDS011;1107;48.654;9.250;2023-02-15T15:49:17;34.00;;;19.20;;
2201;SDS011;1107;48.654;9.250;2023-02-15T15:51:46;24.60;;;17.43;;
2201;SDS011;1107;48.654;9.250;2023-02-15T15:54:15;26.30;;;17.37;;
2201;SDS011;1107;48.654;9.250;2023-02-15T15:56:46;27.00;;;19.43;;
2201;SDS011;1107;48.654;9.250;2023-02-15T15:59:17;21.17;;;17.27;;
2201;SDS011;1107;48.654;9.250;2023-02-15T16:01:46;25.43;;;17.80;;
2201;SDS011;1107;48.654;9.250;2023-02-15T16:04:14;28.40;;;20.47;;
2201;SDS011;1107;48.654;9.250;2023-02-15T16:06:50;34.07;;;18.60;;
2201;SDS011;1107;48.654;9.250;2023-02-15T16:09:17;29.27;;;20.13;;
2201;SDS011;1107;48.654;9.250;2023-02-15T16:11:48;24.10;;;18.10;;
2201;SDS011;1107;48.654;9.250;2023-02-15T16:14:22;30.93;;;20.23;;
2201;SDS011;1107;48.654;9.250;2023-02-15T16:16:55;26.53;;;17.60;;
2201;SDS011;1107;48.654;9.250;2023-02-15T16:19:26;34.50;;;18.40;;
2201;SDS011;1107;48.654;9.250;2023-02-15T16:21:55;26.83;;;19.30;;
2201;SDS011;1107;48.654;9.250;2023-02-15T16:24:26;30.73;;;19.23;;
2201;SDS011;1107;48.654;9.250;2023-02-15T16:33:05;26.90;;;17.63;;
2201;SDS011;1107;48.654;9.250;2023-02-15T16:35:34;28.37;;;17.40;;
2201;SDS011;1107;48.654;9.250;2023-02-15T16:38:02;26.10;;;17.97;;
2201;SDS011;1107;48.654;9.250;2023-02-15T16:40:38;31.13;;;18.03;;
2201;SDS011;1107;48.654;9.250;2023-02-15T16:43:13;24.47;;;17.30;;
2201;SDS011;1107;48.654;9.250;2023-02-15T16:45:42;39.00;;;18.50;;
2201;SDS011;1107;48.654;9.250;2023-02-15T16:48:11;31.00;;;17.47;;
2201;SDS011;1107;48.654;9.250;2023-02-15T16:50:46;48.80;;;18.20;;
2201;SDS011;1107;48.654;9.250;2023-02-15T16:53:18;37.33;;;17.97;;
2201;SDS011;1107;48.654;9.250;2023-02-15T16:55:50;43.37;;;17.33;;
2201;SDS011;1107;48.654;9.250;2023-02-15T17:00:55;47.73;;;17.33;;
2201;SDS011;1107;48.654;9.250;2023-02-15T17:03:24;29.43;;;16.10;;
2201;SDS011;1107;48.654;9.250;2023-02-15T17:05:53;31.30;;;16.80;;
2201;SDS011;1107;48.654;9.250;2023-02-15T17:08:25;52.00;;;16.17;;
2201;SDS011;1107;48.654;9.250;2023-02-15T17:11:05;44.43;;;16.70;;
2201;SDS011;1107;48.654;9.250;2023-02-15T17:16:44;43.27;;;17.23;;
2201;SDS011;1107;48.654;9.250;2023-02-15T17:19:15;46.07;;;18.37;;
2201;SDS011;1107;48.654;9.250;2023-02-15T17:21:47;30.70;;;17.20;;
2201;SDS011;1107;48.654;9.250;2023-02-15T17:24:17;45.73;;;19.10;;
2201;SDS011;1107;48.654;9.250;2023-02-15T17:27:00;32.53;;;18.10;;
2201;SDS011;1107;48.654;9.250;2023-02-15T17:29:32;28.85;;;17.90;;
2201;SDS011;1107;48.654;9.250;2023-02-15T17:32:03;34.50;;;17.80;;
2201;SDS011;1107;48.654;9.250;2023-02-15T17:39:37;30.30;;;16.97;;
2201;SDS011;1107;48.654;9.250;2023-02-15T17:42:05;28.37;;;16.13;;
2201;SDS011;1107;48.654;9.250;2023-02-15T17:49:27;39.40;;;16.70;;
2201;SDS011;1107;48.654;9.250;2023-02-15T17:54:25;24.87;;;16.40;;
2201;SDS011;1107;48.654;9.250;2023-02-15T17:57:10;35.80;;;17.30;;
2201;SDS011;1107;48.654;9.250;2023-02-15T17:59:40;27.13;;;17.03;;
2201;SDS011;1107;48.654;9.250;2023-02-15T18:10:41;30.90;;;15.87;;
2201;SDS011;1107;48.654;9.250;2023-02-15T20:02:02;26.40;;;17.25;;
2201;SDS011;1107;48.654;9.250;2023-02-15T20:04:31;31.42;;;18.52;;
2201;SDS011;1107;48.654;9.250;2023-02-15T20:06:59;40.55;;;20.02;;
2201;SDS011;1107;48.654;9.250;2023-02-15T20:09:28;33.15;;;18.83;;
2201;SDS011;1107;48.654;9.250;2023-02-15T20:11:56;35.33;;;17.65;;
2201;SDS011;1107;48.654;9.250;2023-02-15T20:14:23;33.92;;;19.05;;
2201;SDS011;1107;48.654;9.250;2023-02-15T20:16:50;30.15;;;18.20;;
2201;SDS011;1107;48.654;9.250;2023-02-15T20:19:18;52.00;;;20.35;;
2201;SDS011;1107;48.654;9.250;2023-02-15T20:21:46;61.75;;;30.35;;
2201;SDS011;1107;48.654;9.250;2023-02-15T20:24:19;43.03;;;23.45;;
2201;SDS011;1107;48.654;9.250;2023-02-15T20:26:47;34.30;;;18.55;;
2201;SDS011;1107;48.654;9.250;2023-02-15T20:29:14;30.05;;;16.60;;
2201;SDS011;1107;48.654;9.250;2023-02-15T20:31:43;31.75;;;18.58;;
2201;SDS011;1107;48.654;9.250;2023-02-15T20:34:10;74.57;;;32.55;;
2201;SDS011;1107;48.654;9.250;2023-02-15T20:36:37;127.43;;;60.20;;
2201;SDS011;1107;48.654;9.250;2023-02-15T20:39:11;41.72;;;18.98;;
2201;SDS011;1107;48.654;9.250;2023-02-15T20:41:41;34.35;;;18.17;;
2201;SDS011;1107;48.654;9.250;2023-02-15T20:44:16;28.77;;;17.13;;
2201;SDS011;1107;48.654;9.250;2023-02-15T20:46:44;29.23;;;16.85;;
2201;SDS011;1107;48.654;9.250;2023-02-15T20:49:12;47.78;;;24.58;;
2201;SDS011;1107;48.654;9.250;2023-02-15T20:51:39;134.50;;;64.95;;
2201;SDS011;1107;48.654;9.250;2023-02-15T20:54:12;65.38;;;30.90;;
2201;SDS011;1107;48.654;9.250;2023-02-15T20:56:41;39.47;;;20.98;;
2201;SDS011;1107;48.654;9.250;2023-02-15T20:59:16;44.15;;;21.60;;
2201;SDS011;1107;48.654;9.250;2023-02-15T21:01:46;57.53;;;20.15;;
2201;SDS011;1107;48.654;9.250;2023-02-15T21:04:15;28.33;;;18.27;;
2201;SDS011;1107;48.654;9.250;2023-02-15T21:06:44;31.95;;;19.05;;
2201;SDS011;1107;48.654;9.250;2023-02-15T21:09:13;47.90;;;21.20;;
2201;SDS011;1107;48.654;9.250;2023-02-15T21:11:42;33.22;;;19.80;;
2201;SDS011;1107;48.654;9.250;2023-02-15T21:14:14;32.55;;;20.60;;
2201;SDS011;1107;48.654;9.250;2023-02-15T21:16:43;37.42;;;19.45;;
2201;SDS011;1107;48.654;9.250;2023-02-15T21:19:11;40.20;;;21.38;;
2201;SDS011;1107;48.654;9.250;2023-02-15T21:21:39;73.57;;;35.85;;
2201;SDS011;1107;48.654;9.250;2023-02-15T21:24:10;79.57;;;36.58;;
2201;SDS011;1107;48.654;9.250;2023-02-15T21:26:41;176.68;;;73.85;;
2201;SDS011;1107;48.654;9.250;2023-02-15T21:29:13;117.65;;;50.95;;
2201;SDS011;1107;48.654;9.250;2023-02-15T21:31:41;80.35;;;38.00;;
2201;SDS011;1107;48.654;9.250;2023-02-15T21:34:09;78.70;;;31.80;;
2201;SDS011;1107;48.654;9.250;2023-02-15T21:36:36;60.75;;;30.42;;
2201;SDS011;1107;48.654;9.250;2023-02-15T21:39:04;38.97;;;19.83;;
2201;SDS011;1107;48.654;9.250;2023-02-15T21:41:33;67.28;;;31.00;;
2201;SDS011;1107;48.654;9.250;2023-02-15T21:44:18;52.97;;;27.63;;
2201;SDS011;1107;48.654;9.250;2023-02-15T21:47:04;107.30;;;48.25;;
2201;SDS011;1107;48.654;9.250;2023-02-15T21:49:48;56.72;;;28.27;;
2201;SDS011;1107;48.654;9.250;2023-02-15T21:52:17;59.53;;;29.67;;
2201;SDS011;1107;48.654;9.250;2023-02-15T21:54:46;73.78;;;35.97;;
2201;SDS011;1107;48.654;9.250;2023-02-15T21:57:15;50.78;;;27.73;;
2201;SDS011;1107;48.654;9.250;2023-02-15T21:59:43;28.67;;;16.73;;
2201;SDS011;1107;48.654;9.250;2023-02-15T22:02:21;34.88;;;16.20;;
2201;SDS011;1107;48.654;9.250;2023-02-15T22:04:51;26.23;;;15.18;;
2201;SDS011;1107;48.654;9.250;2023-02-15T22:07:19;37.13;;;19.10;;
2201;SDS011;1107;48.654;9.250;2023-02-15T22:09:46;31.13;;;19.27;;
2201;SDS011;1107;48.654;9.250;2023-02-15T22:12:15;27.63;;;17.70;;
2201;SDS011;1107;48.654;9.250;2023-02-15T22:14:43;37.72;;;18.60;;
2201;SDS011;1107;48.654;9.250;2023-02-15T22:17:15;36.28;;;19.13;;
2201;SDS011;1107;48.654;9.250;2023-02-15T22:19:44;34.85;;;18.70;;
2201;SDS011;1107;48.654;9.250;2023-02-15T22:22:13;37.92;;;18.08;;
2201;SDS011;1107;48.654;9.250;2023-02-15T22:24:40;33.35;;;18.65;;
2201;SDS011;1107;48.654;9.250;2023-02-15T22:27:09;31.48;;;17.55;;
2201;SDS011;1107;48.654;9.250;2023-02-15T22:29:43;37.72;;;19.23;;
2201;SDS011;1107;48.654;9.250;2023-02-15T22:32:12;29.30;;;17.55;;
2201;SDS011;1107;48.654;9.250;2023-02-15T22:34:43;39.03;;;19.50;;
2201;SDS011;1107;48.654;9.250;2023-02-15T22:37:10;31.20;;;17.35;;
2201;SDS011;1107;48.654;9.250;2023-02-15T22:39:38;27.75;;;18.58;;
2201;SDS011;1107;48.654;9.250;2023-02-15T22:42:05;29.92;;;17.05;;
2201;SDS011;1107;48.654;9.250;2023-02-15T22:44:43;32.85;;;16.65;;
2201;SDS011;1107;48.654;9.250;2023-02-15T22:47:11;37.13;;;16.27;;
2201;SDS011;1107;48.654;9.250;2023-02-15T22:49:45;36.60;;;16.88;;
2201;SDS011;1107;48.654;9.250;2023-02-15T22:52:12;40.42;;;22.67;;
2201;SDS011;1107;48.654;9.250;2023-02-15T22:54:40;29.55;;;18.95;;
2201;SDS011;1107;48.654;9.250;2023-02-15T22:57:07;22.15;;;15.10;;
2201;SDS011;1107;48.654;9.250;2023-02-15T22:59:42;30.48;;;16.00;;
2201;SDS011;1107;48.654;9.250;2023-02-15T23:02:11;29.40;;;15.10;;
2201;SDS011;1107;48.654;9.250;2023-02-15T23:04:40;37.20;;;15.35;;
2201;SDS011;1107;48.654;9.250;2023-02-15T23:07:09;33.92;;;15.02;;
2201;SDS011;1107;48.654;9.250;2023-02-15T23:09:39;27.48;;;14.90;;
2201;SDS011;1107;48.654;9.250;2023-02-15T23:12:11;29.92;;;15.02;;
2201;SDS011;1107;48.654;9.250;2023-02-15T23:14:51;34.80;;;15.13;;
2201;SDS011;1107;48.654;9.250;2023-02-15T23:17:18;40.65;;;16.38;;
2201;SDS011;1107;48.654;9.250;2023-02-15T23:19:45;38.60;;;14.98;;
2201;SDS011;1107;48.654;9.250;2023-02-15T23:22:13;26.13;;;13.93;;
2201;SDS011;1107;48.654;9.250;2023-02-15T23:24:41;31.60;;;15.95;;
2201;SDS011;1107;48.654;9.250;2023-02-15T23:27:13;24.08;;;14.90;;
2201;SDS011;1107;48.654;9.250;2023-02-15T23:30:02;40.08;;;15.38;;
2201;SDS011;1107;48.654;9.250;2023-02-15T23:32:30;24.70;;;15.77;;
2201;SDS011;1107;48.654;9.250;2023-02-15T23:34:57;20.63;;;13.43;;
2201;SDS011;1107;48.654;9.250;2023-02-15T23:37:24;21.90;;;13.95;;
2201;SDS011;1107;48.654;9.250;2023-02-15T23:39:51;22.95;;;14.60;;
2201;SDS011;1107;48.654;9.250;2023-02-15T23:42:36;27.05;;;15.50;;
2201;SDS011;1107;48.654;9.250;2023-02-15T23:45:10;25.98;;;16.73;;
2201;SDS011;1107;48.654;9.250;2023-02-15T23:47:46;27.13;;;17.25;;
2201;SDS011;1107;48.654;9.250;2023-02-15T23:50:31;32.05;;;17.55;;
